SBFL/FLN METAR and TAF weather

Enter ICAO airport designator
Station Type Date Time Source
SBFL METAR 2020/08/15 17:00 UTC NOAA

SBFL 151700Z VRB07KT CAVOK 21/17 Q1006


Station Type Date Time Source
SBFL Decoded METAR 2020/08/15 17:00 UTC NOAA

Florianopolis Aeroporto , Brazil (SBFL) 27-40S 048-33W 5M
Aug 15, 2020 - 01:00 PM EDT / 2020.08.15 1700 UTC
Wind: Variable at 8 MPH (7 KT):0
Visibility: greater than 7 mile(s):0
Temperature: 69 F (21 C)
Dew Point: 62 F (17 C)
Relative Humidity: 77%
Pressure (altimeter): 29.71 in. Hg (1006 hPa)
ob: SBFL 151700Z VRB07KT CAVOK 21/17 Q1006
cycle: 17

Station Type Date Time Source
SBFL TAF 2020/08/15 12:04 UTC NOAA

TAF SBFL 150900Z 1512/1612 33012KT 5000 RA BKN008 TX20/1517Z TN14/1606Z
BECMG 1514/1516 30008KT 8000 BKN015
BECMG 1520/1522 16012KT BKN030 FEW040TCU
RMK PEN

Example: see airport list